Time;durP1;ratioP1;P1;durP2;ratioP2;P2;SDS_P1;SDS_P2;PMS_P1;PMS_P2;Temp;Humidity;BMP_temperature;BMP_pressure;BME280_temperature;BME280_humidity;BME280_pressure;Samples;Min_cycle;Max_cycle;Signal;HPM_P1;HPM_P2
2023/06/23 00:01:39;;;;;;;7.90;6.27;;;18.40;99.90;;;;;;5014424;28;20454;-66
2023/06/23 00:04:08;;;;;;;7.70;6.67;;;18.40;99.90;;;;;;5014425;28;20460;-66
2023/06/23 00:06:34;;;;;;;8.10;7.30;;;18.30;99.90;;;;;;5014497;28;20446;-66
2023/06/23 00:09:04;;;;;;;7.40;6.70;;;18.30;99.90;;;;;;5014276;28;20498;-66
2023/06/23 00:11:33;;;;;;;7.23;6.53;;;18.20;99.90;;;;;;5014626;28;20450;-66
2023/06/23 00:13:59;;;;;;;9.00;6.80;;;18.20;99.90;;;;;;5014486;28;20937;-66
2023/06/23 00:16:27;;;;;;;8.57;7.47;;;18.20;99.90;;;;;;5014496;28;20478;-66
2023/06/23 00:18:54;;;;;;;8.30;7.50;;;18.20;99.90;;;;;;5013839;28;20489;-65
2023/06/23 00:21:22;;;;;;;8.93;5.90;;;18.20;99.90;;;;;;5014196;28;20440;-66
2023/06/23 00:23:49;;;;;;;8.93;6.93;;;18.20;99.90;;;;;;5014150;28;20441;-65
2023/06/23 00:26:16;;;;;;;7.20;6.27;;;18.20;99.90;;;;;;5013544;28;20444;-66
2023/06/23 00:28:43;;;;;;;8.60;7.17;;;18.30;99.90;;;;;;5017385;28;20465;-66
2023/06/23 00:31:09;;;;;;;8.30;6.77;;;18.30;99.90;;;;;;5016903;28;20540;-66
2023/06/23 00:33:36;;;;;;;6.70;6.00;;;18.30;99.90;;;;;;5017205;28;20457;-66
2023/06/23 00:36:04;;;;;;;9.30;6.13;;;18.30;99.90;;;;;;5017829;28;20445;-66
2023/06/23 00:38:33;;;;;;;9.40;6.97;;;18.30;99.90;;;;;;5017202;28;20457;-66
2023/06/23 00:41:00;;;;;;;8.73;6.10;;;18.40;99.90;;;;;;5017081;28;20457;-66
2023/06/23 00:43:30;;;;;;;8.73;6.53;;;18.40;99.90;;;;;;5017460;28;20545;-66
2023/06/23 00:45:59;;;;;;;8.67;6.27;;;18.40;99.90;;;;;;5018029;28;20557;-65
2023/06/23 00:48:25;;;;;;;7.77;6.77;;;18.40;99.90;;;;;;5017532;28;20452;-67
2023/06/23 00:50:52;;;;;;;7.67;6.70;;;18.40;99.90;;;;;;5016996;28;20449;-66
2023/06/23 00:53:20;;;;;;;8.63;6.27;;;18.50;99.90;;;;;;5016745;28;20445;-65
2023/06/23 00:55:48;;;;;;;8.90;6.40;;;18.50;99.90;;;;;;5016866;28;20446;-66
2023/06/23 00:58:16;;;;;;;8.23;6.47;;;18.50;99.90;;;;;;5016865;28;21095;-65
2023/06/23 01:00:43;;;;;;;8.97;7.60;;;18.50;99.90;;;;;;5016591;28;20556;-66
2023/06/23 01:03:10;;;;;;;8.90;6.40;;;18.50;99.90;;;;;;5016675;28;20449;-65
2023/06/23 01:05:39;;;;;;;10.20;7.07;;;18.50;99.90;;;;;;5017119;28;20489;-66
2023/06/23 01:08:15;;;;;;;8.30;6.97;;;18.50;99.90;;;;;;5017167;28;20476;-66
2023/06/23 01:10:48;;;;;;;14.63;6.67;;;18.50;99.90;;;;;;5017114;28;20822;-66
2023/06/23 01:13:20;;;;;;;9.70;7.20;;;18.50;99.90;;;;;;5016691;28;20434;-66
2023/06/23 01:15:54;;;;;;;7.60;6.90;;;18.60;99.90;;;;;;5016957;28;20433;-66
2023/06/23 01:18:30;;;;;;;7.13;6.50;;;18.60;99.90;;;;;;5016988;28;20481;-66
2023/06/23 01:21:02;;;;;;;9.73;7.20;;;18.50;99.90;;;;;;5017371;28;20409;-66
2023/06/23 01:24:01;;;;;;;10.10;7.10;;;18.50;99.90;;;;;;5016780;28;20437;-65
2023/06/23 01:26:46;;;;;;;9.50;7.33;;;18.50;99.90;;;;;;5009766;28;20836;-66
2023/06/23 01:29:18;;;;;;;8.57;7.17;;;18.50;99.90;;;;;;5016758;28;20476;-67
2023/06/23 01:31:54;;;;;;;6.83;6.23;;;18.50;99.90;;;;;;5016598;28;20813;-66
2023/06/23 01:34:26;;;;;;;9.97;8.00;;;18.50;99.90;;;;;;5016509;28;20449;-66
2023/06/23 01:37:07;;;;;;;14.33;8.00;;;18.50;99.90;;;;;;5016618;28;20468;-66
2023/06/23 01:39:38;;;;;;;9.37;6.87;;;18.50;99.90;;;;;;5015588;28;20469;-66
2023/06/23 01:42:09;;;;;;;9.90;7.10;;;18.50;99.90;;;;;;5016121;28;20437;-66
2023/06/23 01:44:39;;;;;;;8.97;7.27;;;18.50;99.90;;;;;;5016057;28;20446;-66
2023/06/23 01:47:11;;;;;;;8.20;7.40;;;18.50;99.90;;;;;;5015567;28;20912;-66
2023/06/23 01:49:38;;;;;;;13.40;8.30;;;18.50;99.90;;;;;;5015831;28;20552;-65
2023/06/23 01:52:07;;;;;;;8.10;7.40;;;18.50;99.90;;;;;;5015851;28;20442;-65
2023/06/23 01:54:38;;;;;;;8.40;7.50;;;18.50;99.90;;;;;;5016165;28;20442;-67
2023/06/23 01:57:06;;;;;;;8.80;7.20;;;18.50;99.90;;;;;;5015830;28;20470;-67
2023/06/23 01:59:34;;;;;;;12.20;7.37;;;18.50;99.90;;;;;;5015254;28;20470;-66
2023/06/23 02:02:04;;;;;;;8.90;8.10;;;18.50;99.90;;;;;;5015848;28;20442;-66
2023/06/23 02:04:33;;;;;;;10.57;7.80;;;18.50;99.90;;;;;;5015259;28;20948;-66
2023/06/23 02:07:01;;;;;;;9.73;8.10;;;18.50;99.90;;;;;;5015272;28;20457;-67
2023/06/23 02:09:30;;;;;;;9.07;8.27;;;18.50;99.90;;;;;;5015245;28;20802;-67
2023/06/23 02:11:59;;;;;;;9.00;8.10;;;18.50;99.90;;;;;;5014965;28;20986;-66
2023/06/23 02:14:29;;;;;;;10.00;8.53;;;18.50;99.90;;;;;;5015171;28;20873;-67
2023/06/23 02:16:57;;;;;;;9.27;8.43;;;18.50;99.90;;;;;;5015168;28;20482;-66
2023/06/23 02:19:28;;;;;;;9.83;8.87;;;18.50;99.90;;;;;;5014780;28;20482;-66
2023/06/23 02:21:56;;;;;;;12.20;9.43;;;18.50;99.90;;;;;;5015010;28;20791;-65
2023/06/23 02:24:24;;;;;;;12.30;9.80;;;18.40;99.90;;;;;;5014616;28;20454;-66
2023/06/23 02:26:52;;;;;;;12.30;11.10;;;18.40;99.90;;;;;;5014993;28;20453;-65
2023/06/23 02:29:21;;;;;;;12.53;11.33;;;18.40;99.90;;;;;;5014827;28;20477;-67
2023/06/23 02:31:48;;;;;;;12.60;11.37;;;18.40;99.90;;;;;;5014811;28;20444;-67
2023/06/23 02:34:14;;;;;;;12.33;11.13;;;18.40;99.90;;;;;;5014857;28;20446;-65
2023/06/23 02:36:47;;;;;;;14.23;13.00;;;18.30;99.90;;;;;;5014682;28;20477;-65
2023/06/23 02:39:18;;;;;;;15.63;14.00;;;18.30;99.90;;;;;;5014747;28;20468;-66
2023/06/23 02:41:49;;;;;;;14.27;12.87;;;18.30;99.90;;;;;;5014386;28;20959;-66
2023/06/23 02:44:20;;;;;;;15.57;13.97;;;18.20;99.90;;;;;;5014667;28;20506;-65
2023/06/23 02:46:54;;;;;;;16.90;15.10;;;18.20;99.90;;;;;;5014242;28;20909;-65
2023/06/23 02:49:25;;;;;;;17.40;15.90;;;18.20;99.90;;;;;;5014208;28;20469;-64
2023/06/23 02:51:58;;;;;;;17.03;15.37;;;18.10;99.90;;;;;;5013551;28;20434;-65
2023/06/23 02:54:31;;;;;;;17.27;15.60;;;18.10;99.90;;;;;;5014281;28;20897;-66
2023/06/23 02:56:59;;;;;;;18.40;16.80;;;18.10;99.90;;;;;;5014141;28;20971;-68
2023/06/23 02:59:28;;;;;;;18.37;16.60;;;18.10;99.90;;;;;;5015235;28;20469;-68
2023/06/23 03:01:57;;;;;;;18.70;16.97;;;18.20;99.90;;;;;;5015945;28;20452;-66
2023/06/23 03:04:24;;;;;;;19.53;17.27;;;18.10;99.90;;;;;;5014376;28;20453;-67
2023/06/23 03:06:52;;;;;;;19.37;17.47;;;18.20;99.90;;;;;;5013848;28;20445;-67
2023/06/23 03:09:20;;;;;;;20.03;18.10;;;18.20;99.90;;;;;;5014126;28;20465;-67
2023/06/23 03:11:47;;;;;;;18.53;16.73;;;18.20;99.90;;;;;;5014322;28;20434;-67
2023/06/23 03:14:14;;;;;;;19.10;17.40;;;18.20;99.90;;;;;;5014420;28;20903;-67
2023/06/23 03:16:46;;;;;;;18.37;16.47;;;18.10;99.90;;;;;;5014189;28;20460;-68
2023/06/23 03:19:23;;;;;;;20.93;18.80;;;18.20;99.90;;;;;;5047287;22;20919;-65
2023/06/23 03:21:56;;;;;;;21.00;19.00;;;18.10;99.90;;;;;;5094175;28;20517;-65
2023/06/23 03:24:30;;;;;;;21.80;19.70;;;18.20;99.90;;;;;;5093965;28;20427;-65
2023/06/23 03:26:58;;;;;;;22.43;19.97;;;18.20;99.90;;;;;;5094059;28;20469;-65
2023/06/23 03:29:27;;;;;;;22.13;19.90;;;18.10;99.90;;;;;;5094262;28;20451;-66
2023/06/23 03:31:59;;;;;;;23.43;21.13;;;18.10;99.90;;;;;;5093869;28;20435;-64
2023/06/23 03:34:35;;;;;;;24.10;21.80;;;18.10;99.90;;;;;;5094623;28;20426;-65
2023/06/23 03:37:05;;;;;;;25.17;22.60;;;18.10;99.90;;;;;;5093938;28;20437;-64
2023/06/23 03:39:37;;;;;;;24.90;22.33;;;18.10;99.90;;;;;;5094027;28;20458;-66
2023/06/23 03:42:05;;;;;;;25.43;22.90;;;18.10;99.90;;;;;;5094634;28;20521;-65
2023/06/23 03:44:38;;;;;;;24.10;21.93;;;18.10;99.90;;;;;;5094058;28;20446;-65
2023/06/23 03:47:11;;;;;;;25.40;22.63;;;18.10;99.90;;;;;;5094325;28;20433;-64
2023/06/23 03:49:43;;;;;;;23.47;21.07;;;18.10;99.90;;;;;;5093696;28;20553;-63
2023/06/23 03:52:11;;;;;;;24.70;22.40;;;18.10;99.90;;;;;;5093887;28;20919;-64
2023/06/23 03:54:40;;;;;;;23.23;21.03;;;18.10;99.90;;;;;;5094007;28;20960;-64
2023/06/23 03:57:11;;;;;;;24.40;21.90;;;18.00;99.90;;;;;;5093913;28;20443;-63
2023/06/23 03:59:40;;;;;;;24.10;21.60;;;18.00;99.90;;;;;;5093701;28;20837;-64
2023/06/23 04:02:10;;;;;;;22.17;20.07;;;18.00;99.90;;;;;;5093941;28;20443;-63
2023/06/23 04:04:40;;;;;;;26.43;21.33;;;17.90;99.90;;;;;;5094237;28;20970;-65
2023/06/23 04:07:09;;;;;;;24.10;21.80;;;17.90;99.90;;;;;;5094315;28;20442;-64
2023/06/23 04:11:53;;;;;;;23.67;21.17;;;17.90;99.90;;;;;;5103606;27;1509874;-65
2023/06/23 04:14:22;;;;;;;26.00;23.53;;;17.90;99.90;;;;;;5132788;28;20594;-65
2023/06/23 04:16:50;;;;;;;26.43;23.73;;;17.80;99.90;;;;;;5132995;28;20439;-64
2023/06/23 04:19:18;;;;;;;26.30;23.80;;;17.80;99.90;;;;;;5132558;28;20449;-64
2023/06/23 04:21:47;;;;;;;26.93;23.80;;;17.80;99.90;;;;;;5132159;28;20447;-64
2023/06/23 04:24:15;;;;;;;28.13;25.30;;;17.80;99.90;;;;;;5131913;28;20447;-64
2023/06/23 04:26:44;;;;;;;24.63;22.33;;;17.80;99.90;;;;;;5131575;28;20934;-65
2023/06/23 04:29:14;;;;;;;21.23;19.27;;;17.80;99.90;;;;;;5131609;28;20461;-64
2023/06/23 04:31:42;;;;;;;24.07;21.67;;;17.80;99.90;;;;;;5131317;28;20817;-65
2023/06/23 04:34:09;;;;;;;26.27;22.57;;;17.70;99.90;;;;;;5131277;28;20463;-65
2023/06/23 04:36:42;;;;;;;22.67;20.40;;;17.70;99.90;;;;;;5132552;28;20432;-64
2023/06/23 04:39:16;;;;;;;24.43;22.07;;;17.70;99.90;;;;;;5131989;28;20424;-66
2023/06/23 04:41:48;;;;;;;24.30;21.30;;;17.80;99.90;;;;;;5132278;28;20497;-65
2023/06/23 04:44:21;;;;;;;19.40;17.53;;;17.80;99.90;;;;;;5131336;28;20421;-63
2023/06/23 04:46:51;;;;;;;18.47;14.80;;;17.80;99.90;;;;;;5130741;28;20429;-63
2023/06/23 04:49:22;;;;;;;11.10;9.40;;;17.70;99.90;;;;;;5130176;28;20461;-63
2023/06/23 04:51:54;;;;;;;7.60;7.00;;;17.70;99.90;;;;;;5130673;28;20479;-63
2023/06/23 04:54:25;;;;;;;7.93;6.20;;;17.60;99.90;;;;;;5130911;28;20420;-63
2023/06/23 04:56:59;;;;;;;6.00;5.50;;;17.50;99.90;;;;;;5130442;28;20548;-64
2023/06/23 04:59:33;;;;;;;5.27;4.77;;;17.40;99.90;;;;;;5130129;28;20574;-64
2023/06/23 05:02:02;;;;;;;5.00;4.50;;;17.30;99.90;;;;;;5130531;28;20429;-64
2023/06/23 05:04:30;;;;;;;5.07;4.57;;;17.30;99.90;;;;;;5130492;28;20444;-63
2023/06/23 05:06:58;;;;;;;5.30;4.20;;;17.20;99.90;;;;;;5130632;28;20539;-64
2023/06/23 05:09:26;;;;;;;4.10;3.70;;;17.10;99.90;;;;;;5130618;28;20469;-64
2023/06/23 05:11:54;;;;;;;4.70;4.20;;;17.10;99.90;;;;;;5130231;28;21028;-64
2023/06/23 05:14:24;;;;;;;3.97;3.57;;;17.10;99.90;;;;;;5130545;28;20436;-64
2023/06/23 05:16:56;;;;;;;5.20;3.90;;;17.00;99.90;;;;;;5130595;28;20476;-65
2023/06/23 05:19:25;;;;;;;4.40;4.03;;;16.90;99.90;;;;;;5130858;28;20540;-64
2023/06/23 05:21:54;;;;;;;4.20;3.80;;;16.80;99.90;;;;;;5124697;28;20441;-64
2023/06/23 05:24:25;;;;;;;5.63;4.87;;;16.80;99.90;;;;;;5116027;28;20949;-64
2023/06/23 05:26:53;;;;;;;4.90;4.40;;;16.70;99.90;;;;;;5116963;28;20433;-64
2023/06/23 05:29:21;;;;;;;4.97;4.47;;;16.60;99.90;;;;;;5116907;28;20593;-63
2023/06/23 05:31:51;;;;;;;5.10;4.27;;;16.60;99.90;;;;;;5116586;28;20470;-64
2023/06/23 05:34:20;;;;;;;5.47;4.70;;;16.60;99.90;;;;;;5116934;28;20437;-65
2023/06/23 05:36:49;;;;;;;5.97;5.27;;;16.50;99.90;;;;;;5117012;28;20977;-63
2023/06/23 05:39:16;;;;;;;5.37;4.87;;;16.50;99.90;;;;;;5116547;28;20476;-63
2023/06/23 05:41:43;;;;;;;5.40;4.90;;;16.50;99.90;;;;;;5115995;28;20442;-64
2023/06/23 05:44:10;;;;;;;6.87;4.67;;;16.50;99.90;;;;;;5116566;28;20437;-63
2023/06/23 05:46:40;;;;;;;10.73;4.60;;;16.40;99.90;;;;;;5115969;28;20514;-65
2023/06/23 05:49:13;;;;;;;4.77;4.37;;;16.40;99.90;;;;;;5117317;28;20450;-66
2023/06/23 05:51:42;;;;;;;4.67;4.20;;;16.40;99.90;;;;;;5117512;28;20602;-66
2023/06/23 05:54:11;;;;;;;5.20;4.63;;;16.40;99.90;;;;;;5116992;28;20445;-65
2023/06/23 05:56:43;;;;;;;13.23;5.13;;;16.40;99.90;;;;;;5117373;28;20533;-64
2023/06/23 05:59:16;;;;;;;9.53;5.50;;;16.30;99.90;;;;;;5117247;28;20441;-65
2023/06/23 06:01:46;;;;;;;5.20;4.70;;;16.30;99.90;;;;;;5115977;28;20907;-65
2023/06/23 06:04:16;;;;;;;5.20;4.70;;;16.20;99.90;;;;;;5118508;28;20452;-64
2023/06/23 06:06:46;;;;;;;5.93;5.17;;;16.20;99.90;;;;;;5117591;28;20477;-66
2023/06/23 06:09:16;;;;;;;6.23;5.53;;;16.20;99.90;;;;;;5117651;28;20488;-66
2023/06/23 06:11:45;;;;;;;5.10;4.70;;;16.10;99.90;;;;;;5116946;28;20536;-66
2023/06/23 06:14:15;;;;;;;5.23;4.73;;;16.10;99.90;;;;;;5119635;28;20449;-65
2023/06/23 06:16:43;;;;;;;6.27;5.63;;;16.10;99.90;;;;;;5118014;28;20942;-66
2023/06/23 06:19:11;;;;;;;7.60;4.80;;;16.00;99.90;;;;;;5120159;28;20468;-64
2023/06/23 06:21:40;;;;;;;5.47;4.70;;;16.00;99.90;;;;;;5120202;28;20444;-65
2023/06/23 06:24:11;;;;;;;6.17;5.57;;;15.90;99.90;;;;;;5117899;28;20521;-65
2023/06/23 06:26:37;;;;;;;10.60;6.43;;;15.90;99.90;;;;;;5119048;28;20432;-66
2023/06/23 06:29:07;;;;;;;7.73;6.57;;;15.80;99.90;;;;;;5119211;28;20437;-64
2023/06/23 06:31:34;;;;;;;7.10;6.40;;;15.80;99.90;;;;;;5119631;28;20476;-63
2023/06/23 06:34:02;;;;;;;6.73;6.10;;;15.80;99.90;;;;;;5115332;28;20996;-64
2023/06/23 06:36:33;;;;;;;7.43;6.73;;;15.70;99.90;;;;;;5115161;28;20441;-64
2023/06/23 06:39:02;;;;;;;10.33;8.50;;;15.70;99.90;;;;;;5115178;28;20413;-64
2023/06/23 06:41:32;;;;;;;8.53;7.17;;;15.70;99.90;;;;;;5117244;28;20506;-65
2023/06/23 06:43:59;;;;;;;9.70;7.60;;;15.60;99.90;;;;;;5115409;28;20476;-65
2023/06/23 06:46:27;;;;;;;8.43;7.53;;;15.60;99.90;;;;;;5115400;28;20510;-64
2023/06/23 06:48:56;;;;;;;8.27;6.97;;;15.50;99.90;;;;;;5115296;28;20461;-65
2023/06/23 06:51:24;;;;;;;10.53;8.67;;;15.50;99.90;;;;;;5114574;28;20553;-64
2023/06/23 06:53:51;;;;;;;8.57;7.50;;;15.50;99.90;;;;;;5115216;28;20441;-67
2023/06/23 06:56:19;;;;;;;9.10;8.20;;;15.50;99.90;;;;;;5116148;28;20449;-65
2023/06/23 06:58:48;;;;;;;9.70;7.80;;;15.40;99.90;;;;;;5115161;28;20895;-65
2023/06/23 07:01:16;;;;;;;9.80;8.80;;;15.50;99.90;;;;;;5115082;28;20465;-66
2023/06/23 07:03:45;;;;;;;9.10;8.20;;;15.40;99.90;;;;;;5116656;28;20445;-66
2023/06/23 07:06:13;;;;;;;10.23;9.27;;;15.40;99.90;;;;;;5115556;28;20460;-64
2023/06/23 07:08:40;;;;;;;9.53;8.60;;;15.40;99.90;;;;;;5116375;28;20791;-65
2023/06/23 07:11:07;;;;;;;10.90;9.20;;;15.40;99.90;;;;;;5115589;28;20583;-65
2023/06/23 07:13:34;;;;;;;10.17;8.17;;;15.40;99.90;;;;;;5115859;28;20444;-65
2023/06/23 07:16:02;;;;;;;9.00;8.10;;;15.40;99.90;;;;;;5114935;28;20467;-65
2023/06/23 07:18:29;;;;;;;8.40;7.53;;;15.40;99.90;;;;;;5115257;28;20444;-66
2023/06/23 07:20:56;;;;;;;11.43;9.30;;;15.40;99.90;;;;;;5117327;28;20471;-65
2023/06/23 07:23:23;;;;;;;8.57;7.67;;;15.40;99.90;;;;;;5116192;28;20449;-65
2023/06/23 07:25:50;;;;;;;10.90;8.63;;;15.40;99.90;;;;;;5115217;28;20441;-65
2023/06/23 07:28:17;;;;;;;9.87;8.97;;;15.40;99.90;;;;;;5115590;28;20434;-66
2023/06/23 07:30:44;;;;;;;9.23;8.33;;;15.40;99.90;;;;;;5116046;28;20461;-66
2023/06/23 07:33:12;;;;;;;12.03;10.33;;;15.50;99.90;;;;;;5114666;28;20464;-64
2023/06/23 07:35:39;;;;;;;11.30;9.80;;;15.50;99.90;;;;;;5116420;28;20959;-66
2023/06/23 07:38:05;;;;;;;11.33;9.70;;;15.50;99.90;;;;;;5115067;28;20436;-66
2023/06/23 07:40:33;;;;;;;8.33;7.53;;;15.50;99.90;;;;;;5115007;28;20829;-65
2023/06/23 07:43:00;;;;;;;10.83;9.70;;;15.50;99.90;;;;;;5114377;28;20445;-66
2023/06/23 07:45:27;;;;;;;12.93;10.23;;;15.50;99.90;;;;;;5114271;28;20437;-66
2023/06/23 07:47:53;;;;;;;12.53;10.67;;;15.60;99.90;;;;;;5114251;28;20480;-70
2023/06/23 07:50:21;;;;;;;17.57;11.70;;;15.50;99.90;;;;;;5116646;28;20487;-68
2023/06/23 07:52:53;;;;;;;11.87;10.40;;;15.60;99.90;;;;;;5116307;28;20481;-71
2023/06/23 07:55:20;;;;;;;12.33;11.03;;;15.60;99.90;;;;;;5117450;28;20434;-72
2023/06/23 07:57:48;;;;;;;14.17;12.70;;;15.60;99.90;;;;;;5117329;28;20442;-72
2023/06/23 08:00:16;;;;;;;16.03;10.97;;;15.60;99.90;;;;;;5116704;28;20529;-70
2023/06/23 08:02:43;;;;;;;12.97;11.77;;;15.70;99.90;;;;;;5116421;28;20442;-70
2023/06/23 08:05:10;;;;;;;15.63;12.60;;;15.70;99.90;;;;;;5116294;28;20449;-70
2023/06/23 08:07:39;;;;;;;14.17;12.63;;;15.70;99.90;;;;;;5115186;28;20563;-70
2023/06/23 08:10:06;;;;;;;13.37;11.57;;;15.80;99.90;;;;;;5118330;28;20473;-72
2023/06/23 08:12:35;;;;;;;13.73;12.30;;;15.80;99.90;;;;;;5117725;28;20471;-70
2023/06/23 08:15:02;;;;;;;13.50;12.13;;;15.80;99.90;;;;;;5117708;28;20506;-70
2023/06/23 08:17:29;;;;;;;10.40;9.40;;;15.80;99.90;;;;;;5115800;28;20452;-70
2023/06/23 08:19:56;;;;;;;13.83;12.30;;;15.80;99.90;;;;;;5115821;28;20453;-70
2023/06/23 08:22:23;;;;;;;19.50;13.57;;;15.80;99.90;;;;;;5115902;28;20435;-70
2023/06/23 08:24:51;;;;;;;13.97;12.53;;;15.80;99.90;;;;;;5115480;28;20443;-70
2023/06/23 08:27:18;;;;;;;16.47;14.47;;;15.80;99.90;;;;;;5115154;28;20962;-69
2023/06/23 08:29:45;;;;;;;16.77;15.10;;;15.80;99.90;;;;;;5115361;28;20816;-69
2023/06/23 08:32:13;;;;;;;16.63;14.83;;;15.90;99.90;;;;;;5114668;28;20487;-69
2023/06/23 08:34:40;;;;;;;17.70;15.37;;;15.90;99.90;;;;;;5115345;28;20449;-68
2023/06/23 08:37:07;;;;;;;17.00;13.40;;;15.90;99.90;;;;;;5114085;28;20453;-70
2023/06/23 08:39:34;;;;;;;15.97;13.87;;;15.90;99.90;;;;;;5114527;28;20487;-69
2023/06/23 08:42:03;;;;;;;15.33;13.83;;;15.90;99.90;;;;;;5114816;28;20442;-69
2023/06/23 08:44:31;;;;;;;14.33;12.83;;;15.90;99.90;;;;;;5113619;28;20441;-69
2023/06/23 08:47:02;;;;;;;14.67;13.10;;;15.90;99.90;;;;;;5114981;28;20806;-70
2023/06/23 08:49:31;;;;;;;14.67;12.13;;;15.90;99.90;;;;;;5114444;28;20837;-68
2023/06/23 08:51:59;;;;;;;13.77;12.20;;;15.90;99.90;;;;;;5113678;28;20474;-69
2023/06/23 08:54:26;;;;;;;17.50;13.50;;;15.90;99.90;;;;;;5114067;28;20441;-70
2023/06/23 08:56:53;;;;;;;14.20;11.83;;;15.90;99.90;;;;;;5115728;28;20816;-68
2023/06/23 08:59:22;;;;;;;13.10;11.80;;;15.90;99.90;;;;;;5118099;28;20471;-70
2023/06/23 09:01:49;;;;;;;15.13;12.03;;;15.90;99.90;;;;;;5118182;28;20467;-70
2023/06/23 09:04:16;;;;;;;14.37;12.83;;;15.90;99.90;;;;;;5118329;28;20445;-69
2023/06/23 09:06:43;;;;;;;13.80;12.17;;;15.90;99.90;;;;;;5118237;28;20441;-69
2023/06/23 09:09:10;;;;;;;12.60;11.00;;;15.90;99.90;;;;;;5117881;28;20938;-71
2023/06/23 09:11:37;;;;;;;10.90;9.80;;;15.90;99.90;;;;;;5117471;28;20994;-69
2023/06/23 09:14:07;;;;;;;13.27;9.93;;;15.90;99.90;;;;;;5117282;28;20445;-70
2023/06/23 09:16:36;;;;;;;12.70;10.93;;;15.80;99.90;;;;;;5117056;28;20445;-68
2023/06/23 09:19:03;;;;;;;14.93;10.57;;;15.80;99.90;;;;;;5116672;28;20490;-67
2023/06/23 09:21:31;;;;;;;13.10;10.40;;;15.80;99.90;;;;;;5105765;22;20495;-64
2023/06/23 09:24:01;;;;;;;16.00;9.87;;;15.80;99.90;;;;;;5060815;28;20451;-64
2023/06/23 09:26:28;;;;;;;13.10;10.90;;;15.80;99.90;;;;;;5059851;28;20444;-65
2023/06/23 09:29:14;;;;;;;13.97;10.20;;;15.80;99.90;;;;;;5058786;28;20943;-65
2023/06/23 09:31:43;;;;;;;11.70;9.93;;;15.80;99.90;;;;;;5070204;28;20483;-64
2023/06/23 09:34:10;;;;;;;12.50;9.30;;;15.80;99.90;;;;;;5080897;28;20442;-63
2023/06/23 09:36:37;;;;;;;12.30;10.90;;;15.70;99.90;;;;;;5084244;28;20467;-65
2023/06/23 09:39:04;;;;;;;10.13;9.10;;;15.80;99.90;;;;;;5085190;28;20435;-65
2023/06/23 09:41:33;;;;;;;14.83;10.77;;;15.80;99.90;;;;;;5080202;28;21011;-65
2023/06/23 09:43:59;;;;;;;13.63;10.97;;;15.80;99.90;;;;;;5079474;28;20501;-64
2023/06/23 09:46:27;;;;;;;14.57;10.37;;;15.80;99.90;;;;;;5079767;28;20473;-65
2023/06/23 09:48:56;;;;;;;11.27;10.10;;;15.80;99.90;;;;;;5079383;28;20543;-65
2023/06/23 09:51:22;;;;;;;11.90;10.07;;;15.90;99.90;;;;;;5079106;28;20516;-65
2023/06/23 09:53:50;;;;;;;14.23;12.57;;;15.90;99.90;;;;;;5078948;28;20449;-66
2023/06/23 09:56:18;;;;;;;15.53;11.83;;;15.90;99.90;;;;;;5079168;28;20443;-66
2023/06/23 09:58:47;;;;;;;13.00;11.13;;;15.90;99.90;;;;;;5079821;28;20451;-64
2023/06/23 10:01:17;;;;;;;15.07;11.80;;;15.90;99.90;;;;;;5081409;28;20467;-64
2023/06/23 10:03:46;;;;;;;12.27;9.60;;;15.90;99.90;;;;;;5084625;28;20547;-64
2023/06/23 10:06:23;;;;;;;15.30;11.30;;;16.00;99.90;;;;;;5086333;28;20447;-63
2023/06/23 10:08:54;;;;;;;13.90;11.50;;;16.00;99.90;;;;;;5085104;28;20420;-65
2023/06/23 10:11:29;;;;;;;14.70;11.93;;;16.00;99.90;;;;;;5080682;28;20867;-65
2023/06/23 10:13:56;;;;;;;13.83;11.40;;;16.10;99.90;;;;;;5077418;28;20919;-64
2023/06/23 10:16:24;;;;;;;12.83;10.93;;;16.10;99.90;;;;;;5077207;28;20538;-64
2023/06/23 10:18:51;;;;;;;16.33;11.90;;;16.10;99.90;;;;;;5077336;28;20443;-65
2023/06/23 10:21:18;;;;;;;16.03;12.83;;;16.10;99.90;;;;;;5077297;28;20853;-65
2023/06/23 10:23:48;;;;;;;14.63;12.30;;;16.10;99.90;;;;;;5078207;28;20439;-64
2023/06/23 10:26:16;;;;;;;15.23;12.73;;;16.10;99.90;;;;;;5077540;28;20443;-63
2023/06/23 10:28:47;;;;;;;15.23;13.60;;;16.10;99.90;;;;;;5076738;28;20798;-64
2023/06/23 10:31:14;;;;;;;12.97;11.50;;;16.10;99.90;;;;;;5076196;28;20459;-65
2023/06/23 10:33:42;;;;;;;17.70;13.47;;;16.10;99.90;;;;;;5076730;28;20486;-65
2023/06/23 10:36:14;;;;;;;18.27;14.13;;;16.20;99.90;;;;;;5076396;28;20447;-66
2023/06/23 10:38:44;;;;;;;18.27;14.10;;;16.20;99.90;;;;;;5077006;28;20804;-65
2023/06/23 10:41:14;;;;;;;18.30;12.70;;;16.20;99.90;;;;;;5076342;28;21022;-64
2023/06/23 10:43:46;;;;;;;17.60;13.80;;;16.20;99.90;;;;;;5077179;28;20439;-64
2023/06/23 10:46:13;;;;;;;20.70;14.23;;;16.30;99.90;;;;;;5077110;28;20925;-62
2023/06/23 10:48:41;;;;;;;17.50;14.80;;;16.30;99.90;;;;;;5076805;28;20461;-63
2023/06/23 10:51:10;;;;;;;18.97;14.43;;;16.30;99.90;;;;;;5076486;28;20447;-65
2023/06/23 10:53:45;;;;;;;16.53;14.40;;;16.30;99.90;;;;;;5075740;28;20482;-64
2023/06/23 10:56:30;;;;;;;16.30;13.83;;;16.30;99.90;;;;;;5075857;28;20438;-65
2023/06/23 10:58:57;;;;;;;15.70;14.10;;;16.30;99.90;;;;;;5076696;28;20419;-65
2023/06/23 11:01:26;;;;;;;19.10;14.60;;;16.40;99.90;;;;;;5075578;28;20463;-64
2023/06/23 11:03:53;;;;;;;18.47;14.57;;;16.40;99.90;;;;;;5075627;28;20469;-65
2023/06/23 11:06:28;;;;;;;21.13;15.43;;;16.40;99.90;;;;;;5075902;28;20843;-64
2023/06/23 11:08:56;;;;;;;16.57;14.87;;;16.50;99.90;;;;;;5076105;28;20897;-65
2023/06/23 11:11:33;;;;;;;18.63;15.47;;;16.50;99.90;;;;;;5075749;28;20541;-64
2023/06/23 11:14:01;;;;;;;21.63;17.23;;;16.60;99.90;;;;;;5075712;28;20521;-63
2023/06/23 11:16:30;;;;;;;20.37;17.40;;;16.60;99.90;;;;;;5075006;28;20443;-63
2023/06/23 11:18:58;;;;;;;21.90;17.53;;;16.60;99.90;;;;;;5075522;28;20461;-63
2023/06/23 11:21:33;;;;;;;22.47;18.40;;;16.70;99.90;;;;;;5074700;28;20478;-63
2023/06/23 11:24:14;;;;;;;21.27;18.23;;;16.70;99.90;;;;;;5075712;28;20458;-64
2023/06/23 11:26:52;;;;;;;23.50;19.20;;;16.80;99.90;;;;;;5075059;28;20431;-67
2023/06/23 11:29:21;;;;;;;24.30;19.83;;;16.80;99.90;;;;;;5074833;28;20431;-63
2023/06/23 11:32:05;;;;;;;25.27;19.60;;;16.80;99.90;;;;;;5074509;28;20463;-63
2023/06/23 11:34:48;;;;;;;25.13;21.40;;;16.90;99.90;;;;;;5074660;28;20447;-63
2023/06/23 11:37:15;;;;;;;29.23;20.00;;;17.00;99.90;;;;;;5074276;28;20956;-62
2023/06/23 11:39:42;;;;;;;28.50;22.07;;;17.00;99.90;;;;;;5073975;28;20455;-64
2023/06/23 11:42:10;;;;;;;27.00;21.63;;;17.00;99.90;;;;;;5075705;28;20466;-64
2023/06/23 11:44:37;;;;;;;27.60;22.23;;;17.10;99.90;;;;;;5075373;28;20451;-62
2023/06/23 11:47:05;;;;;;;25.37;21.50;;;17.10;99.90;;;;;;5074174;28;20453;-63
2023/06/23 11:49:32;;;;;;;24.80;20.90;;;17.20;99.90;;;;;;5074050;28;20451;-63
2023/06/23 11:52:03;;;;;;;27.40;23.50;;;17.20;99.90;;;;;;5074263;28;20474;-61
2023/06/23 11:54:32;;;;;;;27.37;24.47;;;17.20;99.90;;;;;;5074144;28;20826;-62
2023/06/23 11:57:00;;;;;;;32.83;24.57;;;17.30;99.90;;;;;;5074445;28;20447;-63
2023/06/23 11:59:34;;;;;;;27.27;23.80;;;17.30;99.90;;;;;;5074608;28;20793;-63
2023/06/23 12:02:01;;;;;;;29.20;24.10;;;17.40;99.90;;;;;;5074636;28;20458;-63
2023/06/23 12:04:28;;;;;;;28.37;24.53;;;17.50;99.90;;;;;;5074462;28;20451;-62
2023/06/23 12:06:55;;;;;;;29.23;25.90;;;17.50;99.90;;;;;;5073924;28;20451;-64
2023/06/23 12:09:22;;;;;;;29.00;23.50;;;17.60;99.90;;;;;;5074197;28;20442;-63
2023/06/23 12:11:50;;;;;;;28.07;22.67;;;17.60;99.90;;;;;;5074482;28;20973;-62
2023/06/23 12:14:17;;;;;;;28.27;24.77;;;17.60;99.90;;;;;;5074786;28;21004;-62
2023/06/23 12:16:45;;;;;;;27.63;23.30;;;17.60;99.90;;;;;;5075393;28;20797;-63
2023/06/23 12:19:11;;;;;;;24.97;22.13;;;17.60;99.90;;;;;;5075629;28;20443;-63
2023/06/23 12:21:39;;;;;;;26.23;23.40;;;17.50;99.90;;;;;;5074307;28;20489;-62
2023/06/23 12:24:09;;;;;;;25.23;22.53;;;17.50;99.90;;;;;;5074777;28;20436;-61
2023/06/23 12:26:40;;;;;;;27.93;23.40;;;17.60;99.90;;;;;;5074713;28;20871;-63
2023/06/23 12:29:11;;;;;;;24.47;21.87;;;17.60;99.90;;;;;;5074300;28;20447;-62
2023/06/23 12:31:39;;;;;;;26.90;22.20;;;17.60;99.90;;;;;;5074734;28;20852;-62
2023/06/23 12:34:14;;;;;;;25.30;21.20;;;17.70;99.90;;;;;;5078452;28;20478;-62
2023/06/23 12:36:43;;;;;;;21.40;19.10;;;17.80;99.90;;;;;;5078407;28;20435;-62
2023/06/23 12:39:12;;;;;;;23.77;21.27;;;17.90;99.90;;;;;;5078299;28;20439;-61
2023/06/23 12:41:40;;;;;;;19.23;17.27;;;17.80;99.90;;;;;;5078818;28;20471;-62
2023/06/23 12:44:07;;;;;;;21.33;19.03;;;17.80;99.90;;;;;;5078558;28;20947;-62
2023/06/23 12:46:34;;;;;;;20.37;18.23;;;17.80;99.90;;;;;;5079869;28;20449;-62
2023/06/23 12:49:01;;;;;;;19.80;17.73;;;17.80;99.90;;;;;;5079078;28;20501;-63